sensor_id;sensor_type;location;lat;lon;timestamp;pressure;altitude;pressure_sealevel;temperature;humidity
62617;BME280;62539;51.190;6.808;2023-02-28T00:00:46;102672.28;;;18.69;51.40
62617;BME280;62539;51.190;6.808;2023-02-28T00:03:11;102667.91;;;18.66;51.54
62617;BME280;62539;51.190;6.808;2023-02-28T00:05:37;102667.91;;;18.65;51.62
62617;BME280;62539;51.190;6.808;2023-02-28T00:08:03;102661.78;;;18.63;51.60
62617;BME280;62539;51.190;6.808;2023-02-28T00:10:29;102656.53;;;18.60;51.64
62617;BME280;62539;51.190;6.808;2023-02-28T00:13:00;102654.78;;;18.59;51.74
62617;BME280;62539;51.190;6.808;2023-02-28T00:15:29;102660.06;;;18.56;51.77
62617;BME280;62539;51.190;6.808;2023-02-28T00:17:54;102660.09;;;18.53;51.76
62617;BME280;62539;51.190;6.808;2023-02-28T00:20:20;102665.34;;;18.51;51.74
62617;BME280;62539;51.190;6.808;2023-02-28T00:22:48;102662.75;;;18.49;51.85
62617;BME280;62539;51.190;6.808;2023-02-28T00:25:19;102661.88;;;18.47;52.03
62617;BME280;62539;51.190;6.808;2023-02-28T00:27:46;102661.03;;;18.45;52.03
62617;BME280;62539;51.190;6.808;2023-02-28T00:30:15;102664.53;;;18.44;51.93
62617;BME280;62539;51.190;6.808;2023-02-28T00:32:42;102663.66;;;18.42;51.87
62617;BME280;62539;51.190;6.808;2023-02-28T00:35:09;102666.28;;;18.41;51.97
62617;BME280;62539;51.190;6.808;2023-02-28T00:37:35;102663.66;;;18.39;52.08
62617;BME280;62539;51.190;6.808;2023-02-28T00:40:01;102663.69;;;18.36;52.05
62617;BME280;62539;51.190;6.808;2023-02-28T00:42:29;102665.44;;;18.34;51.96
62617;BME280;62539;51.190;6.808;2023-02-28T00:44:55;102668.06;;;18.32;51.93
62617;BME280;62539;51.190;6.808;2023-02-28T00:47:20;102670.69;;;18.31;51.94
62617;BME280;62539;51.190;6.808;2023-02-28T00:49:46;102661.94;;;18.29;52.15
62617;BME280;62539;51.190;6.808;2023-02-28T00:52:11;102666.34;;;18.27;52.33
62617;BME280;62539;51.190;6.808;2023-02-28T00:54:37;102654.97;;;18.25;52.17
62617;BME280;62539;51.190;6.808;2023-02-28T00:57:02;102657.56;;;18.23;52.23
62617;BME280;62539;51.190;6.808;2023-02-28T00:59:28;102660.22;;;18.21;52.03
62617;BME280;62539;51.190;6.808;2023-02-28T01:01:53;102667.22;;;18.19;52.09
62617;BME280;62539;51.190;6.808;2023-02-28T01:04:19;102654.97;;;18.18;52.24
62617;BME280;62539;51.190;6.808;2023-02-28T01:06:44;102661.06;;;18.25;52.11
62617;BME280;62539;51.190;6.808;2023-02-28T01:09:10;102661.06;;;18.36;51.79
62617;BME280;62539;51.190;6.808;2023-02-28T01:11:36;102658.38;;;18.48;51.53
62617;BME280;62539;51.190;6.808;2023-02-28T01:14:02;102666.19;;;18.62;51.23
62617;BME280;62539;51.190;6.808;2023-02-28T01:16:29;102666.97;;;18.78;50.84
62617;BME280;62539;51.190;6.808;2023-02-28T01:18:55;102661.63;;;18.94;50.41
62617;BME280;62539;51.190;6.808;2023-02-28T01:21:21;102673.84;;;19.09;49.87
62617;BME280;62539;51.190;6.808;2023-02-28T01:23:47;102663.22;;;19.23;49.51
62617;BME280;62539;51.190;6.808;2023-02-28T01:26:15;102665.75;;;19.35;49.12
62617;BME280;62539;51.190;6.808;2023-02-28T01:28:42;102657.78;;;19.45;48.84
62617;BME280;62539;51.190;6.808;2023-02-28T01:31:09;102663.00;;;19.51;48.70
62617;BME280;62539;51.190;6.808;2023-02-28T01:33:35;102663.84;;;19.56;48.68
62617;BME280;62539;51.190;6.808;2023-02-28T01:36:04;102662.06;;;19.60;48.46
62617;BME280;62539;51.190;6.808;2023-02-28T01:38:32;102657.66;;;19.62;48.62
62617;BME280;62539;51.190;6.808;2023-02-28T01:40:59;102663.78;;;19.62;48.32
62617;BME280;62539;51.190;6.808;2023-02-28T01:43:29;102666.41;;;19.62;48.45
62617;BME280;62539;51.190;6.808;2023-02-28T01:45:58;102659.41;;;19.61;48.39
62617;BME280;62539;51.190;6.808;2023-02-28T01:48:27;102662.94;;;19.57;48.37
62617;BME280;62539;51.190;6.808;2023-02-28T01:51:02;102661.19;;;19.56;48.26
62617;BME280;62539;51.190;6.808;2023-02-28T01:53:37;102660.31;;;19.57;48.31
62617;BME280;62539;51.190;6.808;2023-02-28T01:56:09;102662.94;;;19.60;48.27
62617;BME280;62539;51.190;6.808;2023-02-28T01:58:46;102654.13;;;19.64;48.22
62617;BME280;62539;51.190;6.808;2023-02-28T02:01:13;102662.81;;;19.73;48.16
62617;BME280;62539;51.190;6.808;2023-02-28T02:03:51;102661.88;;;19.81;47.90
62617;BME280;62539;51.190;6.808;2023-02-28T02:06:30;102653.00;;;19.89;47.59
62617;BME280;62539;51.190;6.808;2023-02-28T02:09:08;102650.34;;;19.93;47.40
62617;BME280;62539;51.190;6.808;2023-02-28T02:11:34;102653.84;;;19.95;47.32
62617;BME280;62539;51.190;6.808;2023-02-28T02:14:12;102654.69;;;19.97;47.16
62617;BME280;62539;51.190;6.808;2023-02-28T02:17:07;102644.16;;;19.97;47.34
62617;BME280;62539;51.190;6.808;2023-02-28T02:20:16;102653.84;;;19.95;47.29
62617;BME280;62539;51.190;6.808;2023-02-28T02:26:39;102642.47;;;19.87;47.54
62617;BME280;62539;51.190;6.808;2023-02-28T02:35:13;102639.09;;;19.76;47.70
62617;BME280;62539;51.190;6.808;2023-02-28T02:38:33;102632.94;;;19.77;47.69
62617;BME280;62539;51.190;6.808;2023-02-28T02:40:43;102632.88;;;19.83;47.64
62617;BME280;62539;51.190;6.808;2023-02-28T02:43:26;102629.31;;;19.90;47.57
62617;BME280;62539;51.190;6.808;2023-02-28T02:46:14;102614.31;;;19.97;47.49
62617;BME280;62539;51.190;6.808;2023-02-28T02:48:46;102616.91;;;20.02;47.04
62617;BME280;62539;51.190;6.808;2023-02-28T02:51:16;102619.53;;;20.03;46.88
62617;BME280;62539;51.190;6.808;2023-02-28T02:53:54;102615.13;;;20.04;46.71
62617;BME280;62539;51.190;6.808;2023-02-28T02:56:57;102609.00;;;20.03;46.71
62617;BME280;62539;51.190;6.808;2023-02-28T02:59:27;102622.16;;;20.02;46.82
62617;BME280;62539;51.190;6.808;2023-02-28T03:01:57;102617.81;;;19.99;46.78
62617;BME280;62539;51.190;6.808;2023-02-28T03:04:30;102624.88;;;19.97;46.96
62617;BME280;62539;51.190;6.808;2023-02-28T03:06:58;102629.28;;;19.93;47.33
62617;BME280;62539;51.190;6.808;2023-02-28T03:09:25;102627.56;;;19.89;47.12
62617;BME280;62539;51.190;6.808;2023-02-28T03:11:52;102621.41;;;19.87;47.04
62617;BME280;62539;51.190;6.808;2023-02-28T03:14:36;102621.44;;;19.86;47.32
62617;BME280;62539;51.190;6.808;2023-02-28T03:17:24;102627.56;;;19.88;47.29
62617;BME280;62539;51.190;6.808;2023-02-28T03:20:25;102613.47;;;19.93;47.25
62617;BME280;62539;51.190;6.808;2023-02-28T03:26:07;102620.38;;;20.04;46.87
62617;BME280;62539;51.190;6.808;2023-02-28T03:31:38;102611.59;;;20.05;46.67
62617;BME280;62539;51.190;6.808;2023-02-28T03:34:23;102615.13;;;20.04;46.55
62617;BME280;62539;51.190;6.808;2023-02-28T03:37:16;102615.16;;;20.01;46.65
62617;BME280;62539;51.190;6.808;2023-02-28T03:39:56;102611.66;;;19.98;46.61
62617;BME280;62539;51.190;6.808;2023-02-28T03:42:28;102611.69;;;19.95;46.64
62617;BME280;62539;51.190;6.808;2023-02-28T03:45:08;102618.78;;;19.90;46.93
62617;BME280;62539;51.190;6.808;2023-02-28T03:47:42;102625.81;;;19.85;47.20
62617;BME280;62539;51.190;6.808;2023-02-28T03:50:34;102623.22;;;19.82;47.13
62617;BME280;62539;51.190;6.808;2023-02-28T03:55:42;102623.22;;;19.83;47.20
62617;BME280;62539;51.190;6.808;2023-02-28T03:58:29;102625.78;;;19.88;47.08
62617;BME280;62539;51.190;6.808;2023-02-28T04:01:10;102623.97;;;19.96;46.94
62617;BME280;62539;51.190;6.808;2023-02-28T04:03:40;102627.44;;;20.02;46.75
62617;BME280;62539;51.190;6.808;2023-02-28T04:06:08;102630.91;;;20.04;46.51
62617;BME280;62539;51.190;6.808;2023-02-28T04:08:41;102627.41;;;20.05;46.52
62617;BME280;62539;51.190;6.808;2023-02-28T04:11:16;102627.41;;;20.05;46.70
62617;BME280;62539;51.190;6.808;2023-02-28T04:13:46;102630.91;;;20.04;46.38
62617;BME280;62539;51.190;6.808;2023-02-28T04:16:11;102638.84;;;20.02;46.40
62617;BME280;62539;51.190;6.808;2023-02-28T04:18:38;102632.75;;;19.98;46.52
62617;BME280;62539;51.190;6.808;2023-02-28T04:21:04;102636.28;;;19.94;46.68
62617;BME280;62539;51.190;6.808;2023-02-28T04:23:31;102634.56;;;19.90;46.75
62617;BME280;62539;51.190;6.808;2023-02-28T04:25:56;102642.47;;;19.87;46.81
62617;BME280;62539;51.190;6.808;2023-02-28T04:28:22;102639.88;;;19.84;46.89
62617;BME280;62539;51.190;6.808;2023-02-28T04:30:57;102646.91;;;19.82;46.81
62617;BME280;62539;51.190;6.808;2023-02-28T04:33:24;102650.41;;;19.84;47.11
62617;BME280;62539;51.190;6.808;2023-02-28T04:36:00;102644.19;;;19.94;47.11
62617;BME280;62539;51.190;6.808;2023-02-28T04:38:38;102644.88;;;20.12;46.94
62617;BME280;62539;51.190;6.808;2023-02-28T04:41:04;102641.13;;;20.32;46.35
62617;BME280;62539;51.190;6.808;2023-02-28T04:43:31;102654.97;;;20.51;45.96
62617;BME280;62539;51.190;6.808;2023-02-28T04:45:59;102651.22;;;20.69;45.58
62617;BME280;62539;51.190;6.808;2023-02-28T04:48:32;102643.09;;;20.84;45.23
62617;BME280;62539;51.190;6.808;2023-02-28T04:51:05;102641.13;;;20.99;45.06
62617;BME280;62539;51.190;6.808;2023-02-28T04:53:33;102655.88;;;21.12;44.54
62617;BME280;62539;51.190;6.808;2023-02-28T04:55:59;102650.50;;;21.20;44.37
62617;BME280;62539;51.190;6.808;2023-02-28T04:58:25;102653.00;;;21.26;44.05
62617;BME280;62539;51.190;6.808;2023-02-28T05:00:51;102650.38;;;21.28;43.88
62617;BME280;62539;51.190;6.808;2023-02-28T05:03:17;102647.78;;;21.25;44.16
62617;BME280;62539;51.190;6.808;2023-02-28T05:05:42;102654.84;;;21.21;43.90
62617;BME280;62539;51.190;6.808;2023-02-28T05:08:08;102655.84;;;21.15;44.05
62617;BME280;62539;51.190;6.808;2023-02-28T05:10:35;102657.69;;;21.10;44.28
62617;BME280;62539;51.190;6.808;2023-02-28T05:13:01;102649.81;;;21.09;44.31
62617;BME280;62539;51.190;6.808;2023-02-28T05:15:26;102653.25;;;21.14;44.26
62617;BME280;62539;51.190;6.808;2023-02-28T05:17:52;102646.94;;;21.21;44.13
62617;BME280;62539;51.190;6.808;2023-02-28T05:20:17;102647.69;;;21.31;44.09
62617;BME280;62539;51.190;6.808;2023-02-28T05:22:43;102646.63;;;21.40;43.70
62617;BME280;62539;51.190;6.808;2023-02-28T05:25:16;102656.19;;;21.47;43.92
62617;BME280;62539;51.190;6.808;2023-02-28T05:27:43;102655.19;;;21.56;43.71
62617;BME280;62539;51.190;6.808;2023-02-28T05:30:10;102652.44;;;21.62;43.66
62617;BME280;62539;51.190;6.808;2023-02-28T05:32:40;102650.63;;;21.67;43.50
62617;BME280;62539;51.190;6.808;2023-02-28T05:35:12;102653.16;;;21.73;43.44
62617;BME280;62539;51.190;6.808;2023-02-28T05:37:38;102655.69;;;21.78;43.47
62617;BME280;62539;51.190;6.808;2023-02-28T05:40:07;102661.75;;;21.83;43.11
62617;BME280;62539;51.190;6.808;2023-02-28T05:42:36;102665.19;;;21.90;42.97
62617;BME280;62539;51.190;6.808;2023-02-28T05:45:03;102668.59;;;21.95;42.93
62617;BME280;62539;51.190;6.808;2023-02-28T05:47:30;102663.25;;;21.98;43.07
62617;BME280;62539;51.190;6.808;2023-02-28T05:49:56;102674.56;;;22.05;42.99
62617;BME280;62539;51.190;6.808;2023-02-28T05:52:21;102670.09;;;22.09;42.87
62617;BME280;62539;51.190;6.808;2023-02-28T05:54:47;102671.84;;;22.10;42.49
62617;BME280;62539;51.190;6.808;2023-02-28T05:57:12;102675.41;;;22.07;42.72
62617;BME280;62539;51.190;6.808;2023-02-28T05:59:38;102671.09;;;22.03;42.77
62617;BME280;62539;51.190;6.808;2023-02-28T06:02:05;102672.03;;;21.99;42.85
62617;BME280;62539;51.190;6.808;2023-02-28T06:04:35;102663.38;;;21.91;42.76
62617;BME280;62539;51.190;6.808;2023-02-28T06:07:01;102675.84;;;21.84;42.87
62617;BME280;62539;51.190;6.808;2023-02-28T06:09:26;102683.00;;;21.79;43.19
62617;BME280;62539;51.190;6.808;2023-02-28T06:11:52;102680.41;;;21.76;43.26
62617;BME280;62539;51.190;6.808;2023-02-28T06:14:19;102681.31;;;21.75;43.22
62617;BME280;62539;51.190;6.808;2023-02-28T06:16:45;102686.59;;;21.75;43.38
62617;BME280;62539;51.190;6.808;2023-02-28T06:19:11;102692.72;;;21.77;43.81
62617;BME280;62539;51.190;6.808;2023-02-28T06:21:37;102693.63;;;21.76;43.78
62617;BME280;62539;51.190;6.808;2023-02-28T06:24:03;102695.41;;;21.73;43.38
62617;BME280;62539;51.190;6.808;2023-02-28T06:26:29;102687.59;;;21.67;43.08
62617;BME280;62539;51.190;6.808;2023-02-28T06:28:55;102693.81;;;21.63;43.24
62617;BME280;62539;51.190;6.808;2023-02-28T06:31:21;102700.94;;;21.58;42.98
62617;BME280;62539;51.190;6.808;2023-02-28T06:33:47;102701.03;;;21.52;43.30
62617;BME280;62539;51.190;6.808;2023-02-28T06:36:14;102695.78;;;21.49;43.45
62617;BME280;62539;51.190;6.808;2023-02-28T06:38:41;102704.63;;;21.48;43.62
62617;BME280;62539;51.190;6.808;2023-02-28T06:41:08;102704.63;;;21.48;44.04
62617;BME280;62539;51.190;6.808;2023-02-28T06:43:40;102702.81;;;21.50;44.06
62617;BME280;62539;51.190;6.808;2023-02-28T06:46:08;102706.31;;;21.52;44.05
62617;BME280;62539;51.190;6.808;2023-02-28T06:48:37;102704.50;;;21.54;43.62
62617;BME280;62539;51.190;6.808;2023-02-28T06:51:20;102710.63;;;21.56;43.92
62617;BME280;62539;51.190;6.808;2023-02-28T06:53:47;102715.81;;;21.61;43.82
62617;BME280;62539;51.190;6.808;2023-02-28T06:56:15;102719.34;;;21.63;43.54
62617;BME280;62539;51.190;6.808;2023-02-28T06:58:48;102724.59;;;21.66;43.81
62617;BME280;62539;51.190;6.808;2023-02-28T07:01:15;102724.56;;;21.67;43.79
62617;BME280;62539;51.190;6.808;2023-02-28T07:03:41;102718.41;;;21.68;43.53
62617;BME280;62539;51.190;6.808;2023-02-28T07:06:07;102729.00;;;21.65;42.79
62617;BME280;62539;51.190;6.808;2023-02-28T07:08:34;102726.41;;;21.61;42.44
62617;BME280;62539;51.190;6.808;2023-02-28T07:11:01;102723.78;;;21.59;42.29
62617;BME280;62539;51.190;6.808;2023-02-28T07:13:27;102724.66;;;21.61;42.36
62617;BME280;62539;51.190;6.808;2023-02-28T07:15:58;102723.72;;;21.64;42.29
62617;BME280;62539;51.190;6.808;2023-02-28T07:18:27;102724.56;;;21.67;42.35
62617;BME280;62539;51.190;6.808;2023-02-28T07:20:53;102725.41;;;21.69;42.58
62617;BME280;62539;51.190;6.808;2023-02-28T07:23:19;102734.13;;;21.75;42.44
62617;BME280;62539;51.190;6.808;2023-02-28T07:25:45;102722.63;;;21.77;42.49
62617;BME280;62539;51.190;6.808;2023-02-28T07:28:11;102733.16;;;21.80;42.45
62617;BME280;62539;51.190;6.808;2023-02-28T07:30:36;102728.69;;;21.84;42.54
62617;BME280;62539;51.190;6.808;2023-02-28T07:33:02;102733.94;;;21.87;42.72
62617;BME280;62539;51.190;6.808;2023-02-28T07:35:28;102732.13;;;21.89;42.38
62617;BME280;62539;51.190;6.808;2023-02-28T07:37:54;102737.41;;;21.89;42.58
62617;BME280;62539;51.190;6.808;2023-02-28T07:40:19;102733.03;;;21.86;42.56
62617;BME280;62539;51.190;6.808;2023-02-28T07:42:44;102740.16;;;21.83;42.73
62617;BME280;62539;51.190;6.808;2023-02-28T07:45:11;102741.13;;;21.79;42.64
62617;BME280;62539;51.190;6.808;2023-02-28T07:47:41;102742.00;;;21.78;42.71
62617;BME280;62539;51.190;6.808;2023-02-28T07:50:08;102742.97;;;21.72;42.93
62617;BME280;62539;51.190;6.808;2023-02-28T07:52:37;102746.56;;;21.69;43.13
62617;BME280;62539;51.190;6.808;2023-02-28T07:55:04;102744.84;;;21.65;43.20
62617;BME280;62539;51.190;6.808;2023-02-28T07:57:31;102744.00;;;21.63;43.07
62617;BME280;62539;51.190;6.808;2023-02-28T07:59:57;102749.31;;;21.60;43.21
62617;BME280;62539;51.190;6.808;2023-02-28T08:02:22;102745.78;;;21.61;43.60
62617;BME280;62539;51.190;6.808;2023-02-28T08:04:48;102749.25;;;21.66;43.29
62617;BME280;62539;51.190;6.808;2023-02-28T08:07:14;102750.03;;;21.71;43.19
62617;BME280;62539;51.190;6.808;2023-02-28T08:09:41;102747.25;;;21.79;43.49
62617;BME280;62539;51.190;6.808;2023-02-28T08:12:08;102748.88;;;21.86;43.29
62617;BME280;62539;51.190;6.808;2023-02-28T08:14:35;102756.69;;;21.94;43.34
62617;BME280;62539;51.190;6.808;2023-02-28T08:17:00;102750.41;;;22.01;43.14
62617;BME280;62539;51.190;6.808;2023-02-28T08:19:26;102747.59;;;22.11;42.89
62617;BME280;62539;51.190;6.808;2023-02-28T08:21:51;102752.72;;;22.20;42.36
62617;BME280;62539;51.190;6.808;2023-02-28T08:24:17;102754.34;;;22.27;42.71
62617;BME280;62539;51.190;6.808;2023-02-28T08:26:42;102753.31;;;22.35;42.49
62617;BME280;62539;51.190;6.808;2023-02-28T08:29:08;102752.31;;;22.42;42.66
62617;BME280;62539;51.190;6.808;2023-02-28T08:31:33;102761.00;;;22.50;42.84
62617;BME280;62539;51.190;6.808;2023-02-28T08:34:04;102759.91;;;22.59;42.23
62617;BME280;62539;51.190;6.808;2023-02-28T08:36:31;102758.00;;;22.67;42.10
62617;BME280;62539;51.190;6.808;2023-02-28T08:38:57;102755.22;;;22.75;41.93
62617;BME280;62539;51.190;6.808;2023-02-28T08:41:23;102754.19;;;22.81;42.02
62617;BME280;62539;51.190;6.808;2023-02-28T08:43:48;102756.75;;;22.85;41.62
62617;BME280;62539;51.190;6.808;2023-02-28T08:46:14;102755.72;;;22.91;41.81
62617;BME280;62539;51.190;6.808;2023-02-28T08:48:39;102757.41;;;22.95;41.53
62617;BME280;62539;51.190;6.808;2023-02-28T08:51:08;102753.78;;;23.01;41.60
62617;BME280;62539;51.190;6.808;2023-02-28T08:53:37;102759.84;;;23.06;41.17
62617;BME280;62539;51.190;6.808;2023-02-28T08:56:12;102752.66;;;23.11;41.19
62617;BME280;62539;51.190;6.808;2023-02-28T08:58:39;102755.19;;;23.16;41.16
62617;BME280;62539;51.190;6.808;2023-02-28T09:01:13;102754.19;;;23.22;40.92
62617;BME280;62539;51.190;6.808;2023-02-28T09:03:48;102750.53;;;23.29;40.76
62617;BME280;62539;51.190;6.808;2023-02-28T09:06:15;102754.72;;;23.38;40.45
62617;BME280;62539;51.190;6.808;2023-02-28T09:08:42;102748.28;;;23.48;40.46
62617;BME280;62539;51.190;6.808;2023-02-28T09:11:09;102746.31;;;23.58;40.39
62617;BME280;62539;51.190;6.808;2023-02-28T09:13:35;102747.81;;;23.68;40.42
62617;BME280;62539;51.190;6.808;2023-02-28T09:16:03;102755.53;;;23.77;40.01
62617;BME280;62539;51.190;6.808;2023-02-28T09:18:30;102749.94;;;23.88;39.64
62617;BME280;62539;51.190;6.808;2023-02-28T09:20:56;102737.22;;;24.03;39.35
62617;BME280;62539;51.190;6.808;2023-02-28T09:23:22;102735.94;;;24.18;38.88
62617;BME280;62539;51.190;6.808;2023-02-28T09:25:52;102738.97;;;24.35;38.48
62617;BME280;62539;51.190;6.808;2023-02-28T09:28:19;102733.16;;;24.54;38.35
62617;BME280;62539;51.190;6.808;2023-02-28T09:30:47;102732.78;;;24.66;37.88
62617;BME280;62539;51.190;6.808;2023-02-28T09:33:16;102736.16;;;24.72;37.82
62617;BME280;62539;51.190;6.808;2023-02-28T09:35:45;102732.53;;;25.06;37.46
62617;BME280;62539;51.190;6.808;2023-02-28T09:38:11;102732.53;;;25.34;36.96
62617;BME280;62539;51.190;6.808;2023-02-28T09:40:41;102742.19;;;25.64;36.84
62617;BME280;62539;51.190;6.808;2023-02-28T09:43:10;102735.28;;;25.85;36.49
62617;BME280;62539;51.190;6.808;2023-02-28T09:45:41;102734.16;;;25.92;36.33
62617;BME280;62539;51.190;6.808;2023-02-28T09:48:15;102730.25;;;26.03;35.80
62617;BME280;62539;51.190;6.808;2023-02-28T09:53:29;102731.69;;;26.11;35.71
62617;BME280;62539;51.190;6.808;2023-02-28T09:56:04;102725.09;;;25.98;36.01
62617;BME280;62539;51.190;6.808;2023-02-28T09:58:56;102732.25;;;25.96;36.02
62617;BME280;62539;51.190;6.808;2023-02-28T10:01:44;102738.88;;;25.84;35.84
62617;BME280;62539;51.190;6.808;2023-02-28T10:04:37;102728.13;;;25.87;35.16
62617;BME280;62539;51.190;6.808;2023-02-28T10:07:16;102734.94;;;25.69;35.68
62617;BME280;62539;51.190;6.808;2023-02-28T10:09:51;102731.00;;;26.06;35.02
62617;BME280;62539;51.190;6.808;2023-02-28T10:12:20;102739.00;;;26.32;34.71
62617;BME280;62539;51.190;6.808;2023-02-28T10:14:49;102738.47;;;26.69;33.85
62617;BME280;62539;51.190;6.808;2023-02-28T10:17:24;102733.22;;;27.14;33.42
62617;BME280;62539;51.190;6.808;2023-02-28T10:19:59;102738.66;;;27.55;32.76
62617;BME280;62539;51.190;6.808;2023-02-28T10:22:53;102737.66;;;27.99;32.56
62617;BME280;62539;51.190;6.808;2023-02-28T10:25:24;102726.38;;;28.34;31.71
62617;BME280;62539;51.190;6.808;2023-02-28T10:27:57;102737.50;;;28.63;31.60
62617;BME280;62539;51.190;6.808;2023-02-28T10:30:30;102727.34;;;28.90;31.03
62617;BME280;62539;51.190;6.808;2023-02-28T10:32:56;102729.56;;;29.00;31.07
62617;BME280;62539;51.190;6.808;2023-02-28T10:35:25;102730.28;;;29.03;30.97
62617;BME280;62539;51.190;6.808;2023-02-28T10:37:57;102720.31;;;29.07;30.70
62617;BME280;62539;51.190;6.808;2023-02-28T10:42:59;102721.66;;;29.33;30.48
62617;BME280;62539;51.190;6.808;2023-02-28T10:45:36;102729.97;;;29.46;30.10
62617;BME280;62539;51.190;6.808;2023-02-28T10:48:06;102720.13;;;29.65;30.18
62617;BME280;62539;51.190;6.808;2023-02-28T10:50:58;102721.63;;;29.88;29.82
62617;BME280;62539;51.190;6.808;2023-02-28T10:53:31;102710.81;;;30.07;29.20
62617;BME280;62539;51.190;6.808;2023-02-28T11:04:18;102705.56;;;30.71;28.46
62617;BME280;62539;51.190;6.808;2023-02-28T11:07:22;102705.75;;;30.84;28.17
62617;BME280;62539;51.190;6.808;2023-02-28T11:09:55;102705.88;;;30.97;28.02
62617;BME280;62539;51.190;6.808;2023-02-28T11:12:28;102706.22;;;31.07;27.54
62617;BME280;62539;51.190;6.808;2023-02-28T11:15:02;102697.56;;;31.18;27.86
62617;BME280;62539;51.190;6.808;2023-02-28T11:17:32;102700.78;;;31.25;27.66
62617;BME280;62539;51.190;6.808;2023-02-28T11:20:01;102708.44;;;31.31;27.52
62617;BME280;62539;51.190;6.808;2023-02-28T11:22:35;102707.22;;;31.36;27.58
62617;BME280;62539;51.190;6.808;2023-02-28T11:25:16;102707.91;;;31.40;27.34
62617;BME280;62539;51.190;6.808;2023-02-28T11:27:49;102703.19;;;31.44;27.51
62617;BME280;62539;51.190;6.808;2023-02-28T11:30:24;102703.97;;;31.46;27.39
62617;BME280;62539;51.190;6.808;2023-02-28T11:33:27;102699.50;;;31.46;27.36
62617;BME280;62539;51.190;6.808;2023-02-28T11:36:07;102701.81;;;31.52;27.25
62617;BME280;62539;51.190;6.808;2023-02-28T11:38:37;102706.88;;;31.57;27.08
62617;BME280;62539;51.190;6.808;2023-02-28T11:44:13;102705.53;;;31.64;27.42
62617;BME280;62539;51.190;6.808;2023-02-28T11:47:17;102700.63;;;31.42;27.38
62617;BME280;62539;51.190;6.808;2023-02-28T11:52:44;102705.56;;;30.21;28.68
62617;BME280;62539;51.190;6.808;2023-02-28T11:55:32;102699.69;;;29.63;29.46
62617;BME280;62539;51.190;6.808;2023-02-28T12:04:34;102698.66;;;29.66;29.65
62617;BME280;62539;51.190;6.808;2023-02-28T12:06:58;102701.28;;;30.19;29.20
62617;BME280;62539;51.190;6.808;2023-02-28T12:15:54;102683.31;;;31.17;28.31
62617;BME280;62539;51.190;6.808;2023-02-28T12:19:04;102679.75;;;31.47;27.96
62617;BME280;62539;51.190;6.808;2023-02-28T12:24:41;102680.28;;;31.98;26.99
62617;BME280;62539;51.190;6.808;2023-02-28T12:27:30;102673.00;;;32.14;27.23
62617;BME280;62539;51.190;6.808;2023-02-28T12:30:26;102673.47;;;32.21;26.80
62617;BME280;62539;51.190;6.808;2023-02-28T12:33:01;102655.53;;;32.21;26.71
62617;BME280;62539;51.190;6.808;2023-02-28T12:35:48;102659.66;;;31.98;26.81
62617;BME280;62539;51.190;6.808;2023-02-28T12:38:27;102655.25;;;32.11;26.72
62617;BME280;62539;51.190;6.808;2023-02-28T12:41:18;102647.38;;;32.23;26.86
62617;BME280;62539;51.190;6.808;2023-02-28T12:44:11;102644.88;;;32.34;26.50
62617;BME280;62539;51.190;6.808;2023-02-28T12:46:49;102637.88;;;32.46;26.72
62617;BME280;62539;51.190;6.808;2023-02-28T12:49:25;102632.84;;;32.54;26.09
62617;BME280;62539;51.190;6.808;2023-02-28T12:51:57;102624.38;;;32.61;26.08
62617;BME280;62539;51.190;6.808;2023-02-28T12:54:30;102627.72;;;32.64;26.37
62617;BME280;62539;51.190;6.808;2023-02-28T12:57:31;102619.84;;;32.61;26.29
62617;BME280;62539;51.190;6.808;2023-02-28T13:00:25;102606.53;;;32.60;26.35
62617;BME280;62539;51.190;6.808;2023-02-28T13:03:29;102619.09;;;32.59;26.38
62617;BME280;62539;51.190;6.808;2023-02-28T13:06:26;102612.13;;;32.57;26.46
62617;BME280;62539;51.190;6.808;2023-02-28T13:09:19;102605.22;;;32.52;25.80
62617;BME280;62539;51.190;6.808;2023-02-28T13:11:47;102599.19;;;32.49;26.21
62617;BME280;62539;51.190;6.808;2023-02-28T13:14:36;102597.78;;;32.43;25.76
62617;BME280;62539;51.190;6.808;2023-02-28T13:19:46;102598.94;;;32.39;25.83
62617;BME280;62539;51.190;6.808;2023-02-28T13:22:39;102588.59;;;32.33;26.06
62617;BME280;62539;51.190;6.808;2023-02-28T13:27:47;102570.94;;;32.29;26.02
62617;BME280;62539;51.190;6.808;2023-02-28T13:33:31;102563.00;;;32.13;25.53
62617;BME280;62539;51.190;6.808;2023-02-28T13:38:56;102576.38;;;32.00;25.52
62617;BME280;62539;51.190;6.808;2023-02-28T13:44:05;102570.66;;;31.91;25.95
62617;BME280;62539;51.190;6.808;2023-02-28T13:46:33;102571.41;;;31.93;26.36
62617;BME280;62539;51.190;6.808;2023-02-28T13:51:52;102579.16;;;31.98;26.00
62617;BME280;62539;51.190;6.808;2023-02-28T13:55:13;102572.94;;;31.98;26.54
62617;BME280;62539;51.190;6.808;2023-02-28T13:58:08;102562.59;;;31.91;26.69
62617;BME280;62539;51.190;6.808;2023-02-28T14:07:18;102533.81;;;31.06;27.78
62617;BME280;62539;51.190;6.808;2023-02-28T14:10:06;102559.69;;;30.77;28.32
62617;BME280;62539;51.190;6.808;2023-02-28T14:12:55;102551.25;;;30.53;28.92
62617;BME280;62539;51.190;6.808;2023-02-28T14:18:18;102543.84;;;30.26;28.87
62617;BME280;62539;51.190;6.808;2023-02-28T14:21:07;102545.25;;;30.17;29.33
62617;BME280;62539;51.190;6.808;2023-02-28T14:27:26;102540.88;;;29.82;30.05
62617;BME280;62539;51.190;6.808;2023-02-28T14:39:03;102538.94;;;29.52;30.29
62617;BME280;62539;51.190;6.808;2023-02-28T14:41:34;102537.38;;;29.48;30.36
62617;BME280;62539;51.190;6.808;2023-02-28T14:44:26;102538.50;;;29.44;30.30
62617;BME280;62539;51.190;6.808;2023-02-28T14:47:02;102544.88;;;29.41;30.71
62617;BME280;62539;51.190;6.808;2023-02-28T14:49:35;102532.53;;;29.39;30.92